sensor_id;sensor_type;location;lat;lon;timestamp;P1;durP1;ratioP1;P2;durP2;ratioP2
3427;SDS011;1727;42.624;23.406;2023-07-13T00:00:40;7.20;;;5.90;;
3427;SDS011;1727;42.624;23.406;2023-07-13T00:03:07;7.47;;;6.80;;
3427;SDS011;1727;42.624;23.406;2023-07-13T00:05:34;6.00;;;5.40;;
3427;SDS011;1727;42.624;23.406;2023-07-13T00:08:01;6.23;;;5.63;;
3427;SDS011;1727;42.624;23.406;2023-07-13T00:10:28;5.80;;;5.40;;
3427;SDS011;1727;42.624;23.406;2023-07-13T00:12:55;8.43;;;6.40;;
3427;SDS011;1727;42.624;23.406;2023-07-13T00:15:24;7.63;;;5.90;;
3427;SDS011;1727;42.624;23.406;2023-07-13T00:17:53;7.70;;;6.17;;
3427;SDS011;1727;42.624;23.406;2023-07-13T00:20:21;6.63;;;5.77;;
3427;SDS011;1727;42.624;23.406;2023-07-13T00:22:50;7.73;;;5.67;;
3427;SDS011;1727;42.624;23.406;2023-07-13T00:25:18;10.67;;;6.33;;
3427;SDS011;1727;42.624;23.406;2023-07-13T00:27:46;15.93;;;6.60;;
3427;SDS011;1727;42.624;23.406;2023-07-13T00:30:14;13.47;;;6.23;;
3427;SDS011;1727;42.624;23.406;2023-07-13T00:32:44;10.30;;;6.70;;
3427;SDS011;1727;42.624;23.406;2023-07-13T00:35:12;6.80;;;6.13;;
3427;SDS011;1727;42.624;23.406;2023-07-13T00:37:40;7.50;;;6.03;;
3427;SDS011;1727;42.624;23.406;2023-07-13T00:40:07;8.23;;;7.10;;
3427;SDS011;1727;42.624;23.406;2023-07-13T00:42:37;8.63;;;7.73;;
3427;SDS011;1727;42.624;23.406;2023-07-13T00:45:05;7.10;;;6.50;;
3427;SDS011;1727;42.624;23.406;2023-07-13T00:47:55;8.53;;;7.47;;
3427;SDS011;1727;42.624;23.406;2023-07-13T00:50:23;10.70;;;9.07;;
3427;SDS011;1727;42.624;23.406;2023-07-13T00:52:50;9.47;;;7.93;;
3427;SDS011;1727;42.624;23.406;2023-07-13T00:55:20;7.43;;;6.80;;
3427;SDS011;1727;42.624;23.406;2023-07-13T00:57:48;7.63;;;6.83;;
3427;SDS011;1727;42.624;23.406;2023-07-13T01:00:15;6.80;;;6.10;;
3427;SDS011;1727;42.624;23.406;2023-07-13T01:02:44;8.63;;;6.10;;
3427;SDS011;1727;42.624;23.406;2023-07-13T01:05:14;11.47;;;7.73;;
3427;SDS011;1727;42.624;23.406;2023-07-13T01:07:42;6.60;;;6.00;;
3427;SDS011;1727;42.624;23.406;2023-07-13T01:10:10;8.43;;;6.73;;
3427;SDS011;1727;42.624;23.406;2023-07-13T01:12:38;14.23;;;7.60;;
3427;SDS011;1727;42.624;23.406;2023-07-13T01:15:32;7.87;;;6.63;;
3427;SDS011;1727;42.624;23.406;2023-07-13T01:18:03;7.33;;;6.63;;
3427;SDS011;1727;42.624;23.406;2023-07-13T01:20:32;6.97;;;6.07;;
3427;SDS011;1727;42.624;23.406;2023-07-13T01:23:04;7.37;;;6.10;;
3427;SDS011;1727;42.624;23.406;2023-07-13T01:25:33;7.40;;;6.70;;
3427;SDS011;1727;42.624;23.406;2023-07-13T01:28:00;9.47;;;6.50;;
3427;SDS011;1727;42.624;23.406;2023-07-13T01:30:27;6.67;;;6.00;;
3427;SDS011;1727;42.624;23.406;2023-07-13T01:32:54;11.63;;;7.43;;
3427;SDS011;1727;42.624;23.406;2023-07-13T01:35:21;14.03;;;6.90;;
3427;SDS011;1727;42.624;23.406;2023-07-13T01:37:50;7.37;;;6.67;;
3427;SDS011;1727;42.624;23.406;2023-07-13T01:40:18;8.40;;;6.37;;
3427;SDS011;1727;42.624;23.406;2023-07-13T01:42:45;9.30;;;6.63;;
3427;SDS011;1727;42.624;23.406;2023-07-13T01:45:12;9.10;;;7.47;;
3427;SDS011;1727;42.624;23.406;2023-07-13T01:47:39;7.17;;;6.53;;
3427;SDS011;1727;42.624;23.406;2023-07-13T01:50:07;8.20;;;6.50;;
3427;SDS011;1727;42.624;23.406;2023-07-13T01:52:34;7.57;;;6.80;;
3427;SDS011;1727;42.624;23.406;2023-07-13T01:55:01;7.37;;;6.67;;
3427;SDS011;1727;42.624;23.406;2023-07-13T01:57:29;8.87;;;8.07;;
3427;SDS011;1727;42.624;23.406;2023-07-13T01:59:56;9.33;;;7.47;;
3427;SDS011;1727;42.624;23.406;2023-07-13T02:02:22;6.80;;;6.00;;
3427;SDS011;1727;42.624;23.406;2023-07-13T02:04:49;7.37;;;6.77;;
3427;SDS011;1727;42.624;23.406;2023-07-13T02:07:16;10.77;;;7.70;;
3427;SDS011;1727;42.624;23.406;2023-07-13T02:09:43;9.13;;;6.80;;
3427;SDS011;1727;42.624;23.406;2023-07-13T02:12:10;11.13;;;6.53;;
3427;SDS011;1727;42.624;23.406;2023-07-13T02:14:38;7.97;;;7.17;;
3427;SDS011;1727;42.624;23.406;2023-07-13T02:17:05;7.30;;;6.63;;
3427;SDS011;1727;42.624;23.406;2023-07-13T02:19:32;8.43;;;7.30;;
3427;SDS011;1727;42.624;23.406;2023-07-13T02:21:59;7.67;;;6.87;;
3427;SDS011;1727;42.624;23.406;2023-07-13T02:24:25;8.97;;;7.83;;
3427;SDS011;1727;42.624;23.406;2023-07-13T02:26:52;7.10;;;6.40;;
3427;SDS011;1727;42.624;23.406;2023-07-13T02:29:19;9.70;;;7.87;;
3427;SDS011;1727;42.624;23.406;2023-07-13T02:31:47;8.60;;;7.40;;
3427;SDS011;1727;42.624;23.406;2023-07-13T02:34:14;8.53;;;7.00;;
3427;SDS011;1727;42.624;23.406;2023-07-13T02:36:41;12.30;;;7.07;;
3427;SDS011;1727;42.624;23.406;2023-07-13T02:39:08;7.70;;;7.00;;
3427;SDS011;1727;42.624;23.406;2023-07-13T02:41:35;11.00;;;7.47;;
3427;SDS011;1727;42.624;23.406;2023-07-13T02:44:02;11.57;;;7.07;;
3427;SDS011;1727;42.624;23.406;2023-07-13T02:46:29;7.27;;;6.50;;
3427;SDS011;1727;42.624;23.406;2023-07-13T02:48:57;6.80;;;6.20;;
3427;SDS011;1727;42.624;23.406;2023-07-13T02:51:24;8.40;;;6.60;;
3427;SDS011;1727;42.624;23.406;2023-07-13T02:53:51;7.10;;;6.60;;
3427;SDS011;1727;42.624;23.406;2023-07-13T02:56:19;6.97;;;6.27;;
3427;SDS011;1727;42.624;23.406;2023-07-13T02:58:48;8.10;;;7.30;;
3427;SDS011;1727;42.624;23.406;2023-07-13T03:01:15;11.27;;;6.90;;
3427;SDS011;1727;42.624;23.406;2023-07-13T03:03:44;9.73;;;6.53;;
3427;SDS011;1727;42.624;23.406;2023-07-13T03:06:13;8.90;;;8.03;;
3427;SDS011;1727;42.624;23.406;2023-07-13T03:08:41;11.40;;;6.67;;
3427;SDS011;1727;42.624;23.406;2023-07-13T03:11:10;8.70;;;7.33;;
3427;SDS011;1727;42.624;23.406;2023-07-13T03:13:42;8.97;;;7.10;;
3427;SDS011;1727;42.624;23.406;2023-07-13T03:16:09;9.97;;;7.20;;
3427;SDS011;1727;42.624;23.406;2023-07-13T03:18:36;8.63;;;7.30;;
3427;SDS011;1727;42.624;23.406;2023-07-13T03:21:04;8.57;;;7.67;;
3427;SDS011;1727;42.624;23.406;2023-07-13T03:23:32;8.50;;;7.70;;
3427;SDS011;1727;42.624;23.406;2023-07-13T03:26:02;8.57;;;7.50;;
3427;SDS011;1727;42.624;23.406;2023-07-13T03:28:31;10.93;;;7.27;;
3427;SDS011;1727;42.624;23.406;2023-07-13T03:31:01;9.70;;;6.70;;
3427;SDS011;1727;42.624;23.406;2023-07-13T03:33:29;11.40;;;6.63;;
3427;SDS011;1727;42.624;23.406;2023-07-13T03:35:56;11.60;;;7.27;;
3427;SDS011;1727;42.624;23.406;2023-07-13T03:38:24;11.87;;;8.00;;
3427;SDS011;1727;42.624;23.406;2023-07-13T03:40:52;7.77;;;6.97;;
3427;SDS011;1727;42.624;23.406;2023-07-13T03:43:19;9.20;;;7.20;;
3427;SDS011;1727;42.624;23.406;2023-07-13T03:45:46;11.80;;;7.50;;
3427;SDS011;1727;42.624;23.406;2023-07-13T03:48:13;9.77;;;7.60;;
3427;SDS011;1727;42.624;23.406;2023-07-13T03:50:40;8.07;;;7.30;;
3427;SDS011;1727;42.624;23.406;2023-07-13T03:53:07;9.50;;;7.80;;
3427;SDS011;1727;42.624;23.406;2023-07-13T03:55:34;11.10;;;7.57;;
3427;SDS011;1727;42.624;23.406;2023-07-13T04:00:52;9.33;;;8.00;;
3427;SDS011;1727;42.624;23.406;2023-07-13T04:03:19;10.47;;;7.77;;
3427;SDS011;1727;42.624;23.406;2023-07-13T04:05:46;9.00;;;8.10;;
3427;SDS011;1727;42.624;23.406;2023-07-13T04:08:13;9.13;;;6.83;;
3427;SDS011;1727;42.624;23.406;2023-07-13T04:10:40;8.47;;;7.67;;
3427;SDS011;1727;42.624;23.406;2023-07-13T04:13:07;7.93;;;7.23;;
3427;SDS011;1727;42.624;23.406;2023-07-13T04:15:35;7.33;;;6.50;;
3427;SDS011;1727;42.624;23.406;2023-07-13T04:18:04;9.50;;;7.27;;
3427;SDS011;1727;42.624;23.406;2023-07-13T04:20:31;8.50;;;7.70;;
3427;SDS011;1727;42.624;23.406;2023-07-13T04:23:03;8.90;;;7.00;;
3427;SDS011;1727;42.624;23.406;2023-07-13T04:25:30;8.90;;;7.20;;
3427;SDS011;1727;42.624;23.406;2023-07-13T04:27:57;9.00;;;8.20;;
3427;SDS011;1727;42.624;23.406;2023-07-13T04:30:23;15.43;;;9.13;;
3427;SDS011;1727;42.624;23.406;2023-07-13T04:32:54;14.10;;;8.40;;
3427;SDS011;1727;42.624;23.406;2023-07-13T04:35:21;10.63;;;8.20;;
3427;SDS011;1727;42.624;23.406;2023-07-13T04:37:48;18.23;;;8.90;;
3427;SDS011;1727;42.624;23.406;2023-07-13T04:40:16;14.30;;;8.20;;
3427;SDS011;1727;42.624;23.406;2023-07-13T04:42:46;12.27;;;7.60;;
3427;SDS011;1727;42.624;23.406;2023-07-13T04:45:13;12.17;;;8.60;;
3427;SDS011;1727;42.624;23.406;2023-07-13T04:47:41;16.80;;;7.53;;
3427;SDS011;1727;42.624;23.406;2023-07-13T04:50:12;11.00;;;8.60;;
3427;SDS011;1727;42.624;23.406;2023-07-13T04:52:45;11.23;;;8.43;;
3427;SDS011;1727;42.624;23.406;2023-07-13T04:55:12;19.43;;;9.10;;
3427;SDS011;1727;42.624;23.406;2023-07-13T04:57:39;10.90;;;7.97;;
3427;SDS011;1727;42.624;23.406;2023-07-13T05:00:07;20.67;;;10.70;;
3427;SDS011;1727;42.624;23.406;2023-07-13T05:02:39;8.87;;;7.97;;
3427;SDS011;1727;42.624;23.406;2023-07-13T05:05:13;10.10;;;9.10;;
3427;SDS011;1727;42.624;23.406;2023-07-13T05:07:42;11.17;;;8.10;;
3427;SDS011;1727;42.624;23.406;2023-07-13T05:10:09;10.40;;;7.80;;
3427;SDS011;1727;42.624;23.406;2023-07-13T05:12:38;9.80;;;8.80;;
3427;SDS011;1727;42.624;23.406;2023-07-13T05:15:08;11.27;;;9.80;;
3427;SDS011;1727;42.624;23.406;2023-07-13T05:17:41;13.80;;;8.63;;
3427;SDS011;1727;42.624;23.406;2023-07-13T05:20:08;16.30;;;9.57;;
3427;SDS011;1727;42.624;23.406;2023-07-13T05:22:37;10.57;;;8.47;;
3427;SDS011;1727;42.624;23.406;2023-07-13T05:25:04;9.30;;;8.03;;
3427;SDS011;1727;42.624;23.406;2023-07-13T05:27:32;11.83;;;7.43;;
3427;SDS011;1727;42.624;23.406;2023-07-13T05:29:59;7.83;;;7.23;;
3427;SDS011;1727;42.624;23.406;2023-07-13T05:32:26;10.97;;;7.80;;
3427;SDS011;1727;42.624;23.406;2023-07-13T05:34:53;13.83;;;8.13;;
3427;SDS011;1727;42.624;23.406;2023-07-13T05:37:20;14.27;;;9.30;;
3427;SDS011;1727;42.624;23.406;2023-07-13T05:39:48;15.90;;;8.33;;
3427;SDS011;1727;42.624;23.406;2023-07-13T05:42:15;13.07;;;9.00;;
3427;SDS011;1727;42.624;23.406;2023-07-13T05:44:44;12.83;;;8.37;;
3427;SDS011;1727;42.624;23.406;2023-07-13T05:47:10;11.37;;;7.53;;
3427;SDS011;1727;42.624;23.406;2023-07-13T05:49:39;9.13;;;8.10;;
3427;SDS011;1727;42.624;23.406;2023-07-13T05:52:06;8.10;;;7.40;;
3427;SDS011;1727;42.624;23.406;2023-07-13T05:54:33;8.53;;;6.50;;
3427;SDS011;1727;42.624;23.406;2023-07-13T05:57:01;7.27;;;6.77;;
3427;SDS011;1727;42.624;23.406;2023-07-13T05:59:28;9.43;;;7.13;;
3427;SDS011;1727;42.624;23.406;2023-07-13T06:01:55;9.17;;;8.27;;
3427;SDS011;1727;42.624;23.406;2023-07-13T06:04:22;11.30;;;8.50;;
3427;SDS011;1727;42.624;23.406;2023-07-13T06:06:49;8.30;;;7.60;;
3427;SDS011;1727;42.624;23.406;2023-07-13T06:09:15;7.70;;;7.00;;
3427;SDS011;1727;42.624;23.406;2023-07-13T06:11:42;7.83;;;7.03;;
3427;SDS011;1727;42.624;23.406;2023-07-13T06:14:11;7.93;;;7.13;;
3427;SDS011;1727;42.624;23.406;2023-07-13T06:16:39;8.10;;;7.40;;
3427;SDS011;1727;42.624;23.406;2023-07-13T06:19:06;8.33;;;7.53;;
3427;SDS011;1727;42.624;23.406;2023-07-13T06:21:33;9.73;;;8.37;;
3427;SDS011;1727;42.624;23.406;2023-07-13T06:24:00;10.30;;;7.40;;
3427;SDS011;1727;42.624;23.406;2023-07-13T06:26:27;10.57;;;8.97;;
3427;SDS011;1727;42.624;23.406;2023-07-13T06:28:54;8.57;;;7.77;;
3427;SDS011;1727;42.624;23.406;2023-07-13T06:31:22;8.93;;;7.60;;
3427;SDS011;1727;42.624;23.406;2023-07-13T06:33:49;8.03;;;7.23;;
3427;SDS011;1727;42.624;23.406;2023-07-13T06:36:16;10.90;;;8.20;;
3427;SDS011;1727;42.624;23.406;2023-07-13T06:38:45;11.63;;;7.90;;
3427;SDS011;1727;42.624;23.406;2023-07-13T06:41:11;10.40;;;9.30;;
3427;SDS011;1727;42.624;23.406;2023-07-13T06:43:38;12.10;;;8.60;;
3427;SDS011;1727;42.624;23.406;2023-07-13T06:46:05;10.43;;;8.67;;
3427;SDS011;1727;42.624;23.406;2023-07-13T06:48:34;9.70;;;8.77;;
3427;SDS011;1727;42.624;23.406;2023-07-13T06:51:04;12.63;;;8.53;;
3427;SDS011;1727;42.624;23.406;2023-07-13T06:53:30;9.97;;;8.97;;
3427;SDS011;1727;42.624;23.406;2023-07-13T06:55:57;11.20;;;9.07;;
3427;SDS011;1727;42.624;23.406;2023-07-13T06:58:24;13.90;;;8.77;;
3427;SDS011;1727;42.624;23.406;2023-07-13T07:00:51;11.80;;;8.40;;
3427;SDS011;1727;42.624;23.406;2023-07-13T07:03:18;14.73;;;8.77;;
3427;SDS011;1727;42.624;23.406;2023-07-13T07:05:50;11.80;;;9.37;;
3427;SDS011;1727;42.624;23.406;2023-07-13T07:08:16;10.87;;;9.13;;
3427;SDS011;1727;42.624;23.406;2023-07-13T07:10:46;14.00;;;8.57;;
3427;SDS011;1727;42.624;23.406;2023-07-13T07:13:16;13.93;;;9.30;;
3427;SDS011;1727;42.624;23.406;2023-07-13T07:15:43;13.43;;;8.53;;
3427;SDS011;1727;42.624;23.406;2023-07-13T07:18:10;13.67;;;9.50;;
3427;SDS011;1727;42.624;23.406;2023-07-13T07:20:36;12.73;;;9.60;;
3427;SDS011;1727;42.624;23.406;2023-07-13T07:23:05;9.43;;;8.53;;
3427;SDS011;1727;42.624;23.406;2023-07-13T07:25:31;11.43;;;9.37;;
3427;SDS011;1727;42.624;23.406;2023-07-13T07:28:02;11.10;;;8.63;;
3427;SDS011;1727;42.624;23.406;2023-07-13T07:30:29;12.40;;;9.77;;
3427;SDS011;1727;42.624;23.406;2023-07-13T07:32:56;13.77;;;9.73;;
3427;SDS011;1727;42.624;23.406;2023-07-13T07:35:23;10.83;;;9.73;;
3427;SDS011;1727;42.624;23.406;2023-07-13T07:37:50;12.70;;;10.83;;
3427;SDS011;1727;42.624;23.406;2023-07-13T07:40:18;13.37;;;9.50;;
3427;SDS011;1727;42.624;23.406;2023-07-13T07:42:48;13.70;;;10.10;;
3427;SDS011;1727;42.624;23.406;2023-07-13T07:45:15;12.20;;;9.27;;
3427;SDS011;1727;42.624;23.406;2023-07-13T07:47:42;13.47;;;10.17;;
3427;SDS011;1727;42.624;23.406;2023-07-13T07:50:09;9.00;;;8.20;;
3427;SDS011;1727;42.624;23.406;2023-07-13T07:52:36;12.10;;;11.00;;
3427;SDS011;1727;42.624;23.406;2023-07-13T07:55:04;10.20;;;9.20;;
3427;SDS011;1727;42.624;23.406;2023-07-13T07:57:34;11.33;;;10.27;;
3427;SDS011;1727;42.624;23.406;2023-07-13T08:00:01;12.87;;;9.37;;
3427;SDS011;1727;42.624;23.406;2023-07-13T08:02:29;10.10;;;9.10;;
3427;SDS011;1727;42.624;23.406;2023-07-13T08:04:55;11.90;;;8.90;;
3427;SDS011;1727;42.624;23.406;2023-07-13T08:07:22;10.37;;;9.40;;
3427;SDS011;1727;42.624;23.406;2023-07-13T08:09:51;9.87;;;8.20;;
3427;SDS011;1727;42.624;23.406;2023-07-13T08:12:18;9.90;;;9.00;;
3427;SDS011;1727;42.624;23.406;2023-07-13T08:14:46;13.93;;;9.37;;
3427;SDS011;1727;42.624;23.406;2023-07-13T08:17:18;10.90;;;8.93;;
3427;SDS011;1727;42.624;23.406;2023-07-13T08:19:45;10.03;;;8.97;;
3427;SDS011;1727;42.624;23.406;2023-07-13T08:22:12;15.90;;;9.00;;
3427;SDS011;1727;42.624;23.406;2023-07-13T08:24:39;11.37;;;9.77;;
3427;SDS011;1727;42.624;23.406;2023-07-13T08:27:07;10.90;;;9.57;;
3427;SDS011;1727;42.624;23.406;2023-07-13T08:29:34;12.93;;;9.43;;
3427;SDS011;1727;42.624;23.406;2023-07-13T08:32:02;10.70;;;9.27;;
3427;SDS011;1727;42.624;23.406;2023-07-13T08:34:30;10.50;;;9.53;;
3427;SDS011;1727;42.624;23.406;2023-07-13T08:36:57;16.40;;;9.27;;
3427;SDS011;1727;42.624;23.406;2023-07-13T08:39:24;10.13;;;9.10;;
3427;SDS011;1727;42.624;23.406;2023-07-13T08:41:53;13.37;;;10.20;;
3427;SDS011;1727;42.624;23.406;2023-07-13T08:44:27;13.20;;;9.33;;
3427;SDS011;1727;42.624;23.406;2023-07-13T08:47:05;11.60;;;9.77;;
3427;SDS011;1727;42.624;23.406;2023-07-13T08:49:33;10.40;;;8.50;;
3427;SDS011;1727;42.624;23.406;2023-07-13T08:52:02;9.50;;;8.40;;
3427;SDS011;1727;42.624;23.406;2023-07-13T08:54:35;17.73;;;8.80;;
3427;SDS011;1727;42.624;23.406;2023-07-13T08:57:08;13.30;;;10.00;;
3427;SDS011;1727;42.624;23.406;2023-07-13T08:59:39;11.70;;;9.50;;
3427;SDS011;1727;42.624;23.406;2023-07-13T09:02:20;15.33;;;8.87;;
3427;SDS011;1727;42.624;23.406;2023-07-13T09:04:54;10.60;;;8.93;;
3427;SDS011;1727;42.624;23.406;2023-07-13T09:07:34;15.50;;;9.17;;
3427;SDS011;1727;42.624;23.406;2023-07-13T09:10:13;10.80;;;9.70;;
3427;SDS011;1727;42.624;23.406;2023-07-13T09:12:45;30.13;;;10.30;;
3427;SDS011;1727;42.624;23.406;2023-07-13T09:15:28;10.00;;;9.00;;
3427;SDS011;1727;42.624;23.406;2023-07-13T09:17:59;9.60;;;8.37;;
3427;SDS011;1727;42.624;23.406;2023-07-13T09:20:31;12.63;;;9.50;;
3427;SDS011;1727;42.624;23.406;2023-07-13T09:23:03;9.87;;;8.97;;
3427;SDS011;1727;42.624;23.406;2023-07-13T09:25:38;9.80;;;8.60;;
3427;SDS011;1727;42.624;23.406;2023-07-13T09:28:09;10.37;;;9.27;;
3427;SDS011;1727;42.624;23.406;2023-07-13T09:30:42;15.10;;;9.30;;
3427;SDS011;1727;42.624;23.406;2023-07-13T09:33:15;9.37;;;8.30;;
3427;SDS011;1727;42.624;23.406;2023-07-13T09:35:42;13.43;;;9.67;;
3427;SDS011;1727;42.624;23.406;2023-07-13T09:38:13;11.80;;;9.60;;
3427;SDS011;1727;42.624;23.406;2023-07-13T09:40:44;14.40;;;9.03;;
3427;SDS011;1727;42.624;23.406;2023-07-13T09:43:20;10.40;;;9.30;;
3427;SDS011;1727;42.624;23.406;2023-07-13T09:45:47;16.20;;;11.67;;
3427;SDS011;1727;42.624;23.406;2023-07-13T09:48:16;19.47;;;9.70;;
3427;SDS011;1727;42.624;23.406;2023-07-13T09:50:44;12.43;;;10.70;;
3427;SDS011;1727;42.624;23.406;2023-07-13T09:53:12;26.83;;;9.50;;
3427;SDS011;1727;42.624;23.406;2023-07-13T09:55:41;11.93;;;10.03;;
3427;SDS011;1727;42.624;23.406;2023-07-13T09:58:10;20.33;;;10.00;;
3427;SDS011;1727;42.624;23.406;2023-07-13T10:00:40;10.83;;;9.60;;
3427;SDS011;1727;42.624;23.406;2023-07-13T10:03:18;15.43;;;10.27;;
3427;SDS011;1727;42.624;23.406;2023-07-13T10:05:47;16.93;;;11.20;;
3427;SDS011;1727;42.624;23.406;2023-07-13T10:08:21;14.63;;;8.90;;
3427;SDS011;1727;42.624;23.406;2023-07-13T10:10:53;13.17;;;9.63;;
3427;SDS011;1727;42.624;23.406;2023-07-13T10:13:28;14.07;;;9.30;;
3427;SDS011;1727;42.624;23.406;2023-07-13T10:15:59;11.30;;;9.07;;
3427;SDS011;1727;42.624;23.406;2023-07-13T10:18:28;15.23;;;10.00;;
3427;SDS011;1727;42.624;23.406;2023-07-13T10:20:59;9.07;;;8.17;;
3427;SDS011;1727;42.624;23.406;2023-07-13T10:23:36;14.57;;;9.67;;
3427;SDS011;1727;42.624;23.406;2023-07-13T10:26:04;11.80;;;8.80;;
3427;SDS011;1727;42.624;23.406;2023-07-13T10:28:36;12.30;;;8.50;;
3427;SDS011;1727;42.624;23.406;2023-07-13T10:31:06;13.80;;;9.30;;
3427;SDS011;1727;42.624;23.406;2023-07-13T10:33:40;12.37;;;9.67;;
3427;SDS011;1727;42.624;23.406;2023-07-13T10:36:12;12.50;;;9.13;;
3427;SDS011;1727;42.624;23.406;2023-07-13T10:38:42;11.33;;;8.67;;
3427;SDS011;1727;42.624;23.406;2023-07-13T10:41:11;10.60;;;9.27;;
3427;SDS011;1727;42.624;23.406;2023-07-13T10:43:43;15.27;;;9.77;;
3427;SDS011;1727;42.624;23.406;2023-07-13T10:46:15;11.10;;;9.57;;
3427;SDS011;1727;42.624;23.406;2023-07-13T10:48:46;10.70;;;9.60;;
3427;SDS011;1727;42.624;23.406;2023-07-13T10:51:17;19.40;;;9.87;;
3427;SDS011;1727;42.624;23.406;2023-07-13T10:53:47;10.07;;;9.10;;
3427;SDS011;1727;42.624;23.406;2023-07-13T10:56:34;13.50;;;9.70;;
3427;SDS011;1727;42.624;23.406;2023-07-13T10:59:02;16.73;;;10.10;;
3427;SDS011;1727;42.624;23.406;2023-07-13T11:01:39;12.80;;;9.83;;
3427;SDS011;1727;42.624;23.406;2023-07-13T11:04:14;12.97;;;9.73;;
3427;SDS011;1727;42.624;23.406;2023-07-13T11:06:42;14.23;;;9.53;;
3427;SDS011;1727;42.624;23.406;2023-07-13T11:09:18;14.03;;;9.83;;
3427;SDS011;1727;42.624;23.406;2023-07-13T11:11:58;22.10;;;9.33;;
3427;SDS011;1727;42.624;23.406;2023-07-13T11:14:27;13.37;;;9.53;;
3427;SDS011;1727;42.624;23.406;2023-07-13T11:16:56;11.07;;;9.97;;
3427;SDS011;1727;42.624;23.406;2023-07-13T11:19:38;12.00;;;9.33;;
3427;SDS011;1727;42.624;23.406;2023-07-13T11:22:15;12.63;;;9.80;;
3427;SDS011;1727;42.624;23.406;2023-07-13T11:24:48;14.67;;;9.50;;
3427;SDS011;1727;42.624;23.406;2023-07-13T11:27:25;12.67;;;9.13;;
3427;SDS011;1727;42.624;23.406;2023-07-13T11:30:09;21.23;;;10.27;;
3427;SDS011;1727;42.624;23.406;2023-07-13T11:33:09;17.30;;;9.47;;
3427;SDS011;1727;42.624;23.406;2023-07-13T11:35:44;18.83;;;8.47;;
3427;SDS011;1727;42.624;23.406;2023-07-13T11:38:16;11.17;;;8.67;;
3427;SDS011;1727;42.624;23.406;2023-07-13T11:40:45;16.90;;;9.10;;
3427;SDS011;1727;42.624;23.406;2023-07-13T11:43:13;11.97;;;7.87;;
3427;SDS011;1727;42.624;23.406;2023-07-13T11:45:41;16.40;;;7.90;;
3427;SDS011;1727;42.624;23.406;2023-07-13T11:48:18;9.83;;;8.27;;
3427;SDS011;1727;42.624;23.406;2023-07-13T11:50:52;14.10;;;9.17;;
3427;SDS011;1727;42.624;23.406;2023-07-13T11:53:22;11.90;;;8.40;;
3427;SDS011;1727;42.624;23.406;2023-07-13T11:55:52;10.80;;;8.37;;
3427;SDS011;1727;42.624;23.406;2023-07-13T11:58:20;14.63;;;8.10;;
3427;SDS011;1727;42.624;23.406;2023-07-13T12:00:50;10.23;;;8.27;;
3427;SDS011;1727;42.624;23.406;2023-07-13T12:03:20;11.30;;;8.47;;
3427;SDS011;1727;42.624;23.406;2023-07-13T12:05:57;15.60;;;8.10;;
3427;SDS011;1727;42.624;23.406;2023-07-13T12:08:26;11.93;;;7.93;;
3427;SDS011;1727;42.624;23.406;2023-07-13T12:10:56;10.13;;;8.43;;
3427;SDS011;1727;42.624;23.406;2023-07-13T12:13:26;12.93;;;8.70;;
3427;SDS011;1727;42.624;23.406;2023-07-13T12:15:53;25.23;;;8.53;;
3427;SDS011;1727;42.624;23.406;2023-07-13T12:18:20;12.97;;;7.83;;
3427;SDS011;1727;42.624;23.406;2023-07-13T12:20:50;14.63;;;7.40;;
3427;SDS011;1727;42.624;23.406;2023-07-13T12:23:22;11.87;;;8.33;;
3427;SDS011;1727;42.624;23.406;2023-07-13T12:25:51;15.10;;;8.20;;
3427;SDS011;1727;42.624;23.406;2023-07-13T12:28:22;13.53;;;7.70;;
3427;SDS011;1727;42.624;23.406;2023-07-13T12:30:57;8.27;;;7.40;;
3427;SDS011;1727;42.624;23.406;2023-07-13T12:33:27;14.17;;;9.40;;
3427;SDS011;1727;42.624;23.406;2023-07-13T12:35:56;10.50;;;9.00;;
3427;SDS011;1727;42.624;23.406;2023-07-13T12:38:25;11.80;;;8.93;;
3427;SDS011;1727;42.624;23.406;2023-07-13T12:40:52;12.33;;;7.83;;
3427;SDS011;1727;42.624;23.406;2023-07-13T12:43:20;15.33;;;8.33;;
3427;SDS011;1727;42.624;23.406;2023-07-13T12:45:55;14.70;;;8.10;;
3427;SDS011;1727;42.624;23.406;2023-07-13T12:48:23;19.77;;;8.03;;
3427;SDS011;1727;42.624;23.406;2023-07-13T12:50:51;9.07;;;8.10;;
3427;SDS011;1727;42.624;23.406;2023-07-13T12:53:21;13.27;;;8.57;;
3427;SDS011;1727;42.624;23.406;2023-07-13T12:55:52;9.80;;;7.60;;
3427;SDS011;1727;42.624;23.406;2023-07-13T12:58:25;11.23;;;7.43;;
3427;SDS011;1727;42.624;23.406;2023-07-13T13:00:53;13.17;;;7.67;;
3427;SDS011;1727;42.624;23.406;2023-07-13T13:03:24;11.20;;;7.97;;
3427;SDS011;1727;42.624;23.406;2023-07-13T13:05:57;15.27;;;7.93;;
3427;SDS011;1727;42.624;23.406;2023-07-13T13:08:28;10.43;;;7.63;;
3427;SDS011;1727;42.624;23.406;2023-07-13T13:10:57;14.93;;;7.87;;
3427;SDS011;1727;42.624;23.406;2023-07-13T13:13:24;15.70;;;7.67;;
3427;SDS011;1727;42.624;23.406;2023-07-13T13:15:50;12.97;;;8.10;;
3427;SDS011;1727;42.624;23.406;2023-07-13T13:18:19;9.03;;;7.77;;
3427;SDS011;1727;42.624;23.406;2023-07-13T13:20:47;9.17;;;7.00;;
3427;SDS011;1727;42.624;23.406;2023-07-13T13:23:14;9.63;;;7.13;;
3427;SDS011;1727;42.624;23.406;2023-07-13T13:25:43;11.50;;;7.33;;
3427;SDS011;1727;42.624;23.406;2023-07-13T13:28:15;21.43;;;8.50;;
3427;SDS011;1727;42.624;23.406;2023-07-13T13:30:44;7.83;;;7.00;;
3427;SDS011;1727;42.624;23.406;2023-07-13T13:33:12;11.63;;;8.50;;
3427;SDS011;1727;42.624;23.406;2023-07-13T13:35:41;14.97;;;8.80;;
3427;SDS011;1727;42.624;23.406;2023-07-13T13:38:11;15.03;;;8.07;;
3427;SDS011;1727;42.624;23.406;2023-07-13T13:40:40;14.50;;;8.60;;
3427;SDS011;1727;42.624;23.406;2023-07-13T13:43:13;12.40;;;8.80;;
3427;SDS011;1727;42.624;23.406;2023-07-13T13:45:43;9.77;;;7.70;;
3427;SDS011;1727;42.624;23.406;2023-07-13T13:48:14;12.00;;;7.63;;
3427;SDS011;1727;42.624;23.406;2023-07-13T13:50:43;11.70;;;7.80;;
3427;SDS011;1727;42.624;23.406;2023-07-13T13:53:10;12.80;;;7.60;;
3427;SDS011;1727;42.624;23.406;2023-07-13T13:55:38;14.83;;;7.80;;
3427;SDS011;1727;42.624;23.406;2023-07-13T13:58:07;13.10;;;7.80;;
3427;SDS011;1727;42.624;23.406;2023-07-13T14:00:35;8.93;;;7.97;;
3427;SDS011;1727;42.624;23.406;2023-07-13T14:03:03;8.60;;;7.30;;
3427;SDS011;1727;42.624;23.406;2023-07-13T14:05:32;12.47;;;8.73;;
3427;SDS011;1727;42.624;23.406;2023-07-13T14:07:59;15.20;;;7.63;;
3427;SDS011;1727;42.624;23.406;2023-07-13T14:10:26;12.80;;;7.20;;
3427;SDS011;1727;42.624;23.406;2023-07-13T14:12:54;9.30;;;8.13;;
3427;SDS011;1727;42.624;23.406;2023-07-13T14:15:23;11.67;;;8.10;;
3427;SDS011;1727;42.624;23.406;2023-07-13T14:17:54;9.63;;;7.83;;
3427;SDS011;1727;42.624;23.406;2023-07-13T14:20:23;11.27;;;7.43;;
3427;SDS011;1727;42.624;23.406;2023-07-13T14:22:51;14.47;;;9.07;;
3427;SDS011;1727;42.624;23.406;2023-07-13T14:25:20;9.67;;;7.90;;
3427;SDS011;1727;42.624;23.406;2023-07-13T14:27:49;13.40;;;7.53;;
3427;SDS011;1727;42.624;23.406;2023-07-13T14:30:21;11.77;;;7.20;;
3427;SDS011;1727;42.624;23.406;2023-07-13T14:32:47;8.90;;;7.17;;
3427;SDS011;1727;42.624;23.406;2023-07-13T14:35:17;20.13;;;8.03;;
3427;SDS011;1727;42.624;23.406;2023-07-13T14:37:45;25.90;;;8.53;;
3427;SDS011;1727;42.624;23.406;2023-07-13T14:40:13;14.17;;;7.80;;
3427;SDS011;1727;42.624;23.406;2023-07-13T14:42:42;17.93;;;8.17;;
3427;SDS011;1727;42.624;23.406;2023-07-13T14:45:13;11.37;;;7.67;;
3427;SDS011;1727;42.624;23.406;2023-07-13T14:47:41;14.67;;;8.03;;
3427;SDS011;1727;42.624;23.406;2023-07-13T14:50:12;11.93;;;7.40;;
3427;SDS011;1727;42.624;23.406;2023-07-13T14:52:42;13.10;;;7.50;;
3427;SDS011;1727;42.624;23.406;2023-07-13T14:55:10;15.13;;;8.20;;
3427;SDS011;1727;42.624;23.406;2023-07-13T14:57:38;16.27;;;7.50;;
3427;SDS011;1727;42.624;23.406;2023-07-13T15:00:05;12.70;;;8.20;;
3427;SDS011;1727;42.624;23.406;2023-07-13T15:02:40;19.30;;;9.23;;
3427;SDS011;1727;42.624;23.406;2023-07-13T15:05:13;26.57;;;7.73;;
3427;SDS011;1727;42.624;23.406;2023-07-13T15:07:42;12.77;;;7.10;;